Time;durP1;ratioP1;P1;durP2;ratioP2;P2;SDS_P1;SDS_P2;PMS_P1;PMS_P2;Temp;Humidity;BMP_temperature;BMP_pressure;BME280_temperature;BME280_humidity;BME280_pressure;Samples;Min_cycle;Max_cycle;Signal;HPM_P1;HPM_P2
2022/08/03 00:01:41;;;;;;;5.32;1.90;;;23.20;66.50;;;;;;4991998;28;20457;-66
2022/08/03 00:04:09;;;;;;;4.00;1.45;;;23.10;66.90;;;;;;4990510;28;20030;-66
2022/08/03 00:06:35;;;;;;;4.55;1.65;;;23.00;67.40;;;;;;4991570;28;20685;-66
2022/08/03 00:09:00;;;;;;;4.35;1.60;;;22.90;67.90;;;;;;4991410;28;20038;-66
2022/08/03 00:11:26;;;;;;;3.97;1.20;;;22.80;68.10;;;;;;4991501;28;20105;-66
2022/08/03 00:13:52;;;;;;;4.45;1.55;;;22.80;68.10;;;;;;4991190;28;20125;-66
2022/08/03 00:16:18;;;;;;;3.25;1.35;;;22.80;68.20;;;;;;4990974;28;20076;-66
2022/08/03 00:18:44;;;;;;;5.68;1.48;;;22.80;68.40;;;;;;4991034;28;20659;-66
2022/08/03 00:21:10;;;;;;;3.22;1.35;;;22.70;68.70;;;;;;4990377;28;20101;-66
2022/08/03 00:23:36;;;;;;;3.08;1.33;;;22.60;69.20;;;;;;4991704;28;20473;-66
2022/08/03 00:26:01;;;;;;;3.53;1.20;;;22.60;69.30;;;;;;4991495;28;20034;-66
2022/08/03 00:28:27;;;;;;;3.42;1.30;;;22.60;69.30;;;;;;4991664;28;20026;-66
2022/08/03 00:30:54;;;;;;;3.35;1.20;;;22.60;69.10;;;;;;4991440;28;20470;-66
2022/08/03 00:33:20;;;;;;;4.75;1.38;;;22.60;68.90;;;;;;4991457;28;20018;-66
2022/08/03 00:35:46;;;;;;;2.60;1.17;;;22.60;68.90;;;;;;4991497;28;20532;-66
2022/08/03 00:38:12;;;;;;;3.75;1.30;;;22.60;69.10;;;;;;4991376;28;20098;-66
2022/08/03 00:40:38;;;;;;;3.72;1.35;;;22.60;69.20;;;;;;4990349;28;20030;-66
2022/08/03 00:43:05;;;;;;;3.35;1.30;;;22.50;69.50;;;;;;4992073;28;20034;-67
2022/08/03 00:45:36;;;;;;;6.30;1.55;;;22.50;69.60;;;;;;4991568;28;20023;-66
2022/08/03 00:48:04;;;;;;;3.28;1.25;;;22.50;69.80;;;;;;4990009;28;20054;-66
2022/08/03 00:50:33;;;;;;;4.95;1.20;;;22.40;69.80;;;;;;4991862;28;20113;-66
2022/08/03 00:53:00;;;;;;;5.45;1.17;;;22.40;69.70;;;;;;4991389;28;20030;-66
2022/08/03 00:55:26;;;;;;;3.03;1.38;;;22.40;70.00;;;;;;4991247;28;20014;-66
2022/08/03 00:57:53;;;;;;;3.92;1.45;;;22.30;70.30;;;;;;4991241;28;20027;-66
2022/08/03 01:00:24;;;;;;;5.82;1.42;;;22.30;70.50;;;;;;4991355;28;20153;-66
2022/08/03 01:02:52;;;;;;;5.45;1.50;;;22.30;70.40;;;;;;4991003;28;20105;-66
2022/08/03 01:05:18;;;;;;;2.53;1.40;;;22.20;70.70;;;;;;4990881;28;20010;-66
2022/08/03 01:08:10;;;;;;;4.13;1.45;;;22.20;71.00;;;;;;4991129;28;20101;-66
2022/08/03 01:10:37;;;;;;;;;;;22.10;71.40;;;;;;4983021;28;20075;-66
2022/08/03 01:13:09;;;;;;;3.97;1.45;;;22.00;71.30;;;;;;4990872;28;19905;-66
2022/08/03 01:15:42;;;;;;;5.85;1.90;;;22.00;71.70;;;;;;4990823;28;20381;-66
2022/08/03 01:18:17;;;;;;;3.42;1.50;;;21.90;72.10;;;;;;4990914;28;20026;-66
2022/08/03 01:20:53;;;;;;;4.47;1.50;;;21.90;72.50;;;;;;4989431;28;20085;-66
2022/08/03 01:23:45;;;;;;;3.35;1.20;;;21.90;72.50;;;;;;4990718;28;20109;-66
2022/08/03 01:26:23;;;;;;;3.83;1.60;;;21.90;72.50;;;;;;4990521;28;20113;-66
2022/08/03 01:29:12;;;;;;;4.53;1.90;;;21.80;73.30;;;;;;4988977;28;20026;-66
2022/08/03 01:31:47;;;;;;;4.80;1.65;;;21.80;72.90;;;;;;4990969;28;20065;-66
2022/08/03 01:34:15;;;;;;;4.00;1.42;;;21.80;73.20;;;;;;4994823;28;20426;-66
2022/08/03 01:36:47;;;;;;;3.47;1.50;;;21.80;73.00;;;;;;4994563;28;20492;-66
2022/08/03 01:39:14;;;;;;;;;;;21.80;72.80;;;;;;4995126;28;20037;-66
2022/08/03 01:42:00;;;;;;;5.78;1.52;;;21.80;72.50;;;;;;4993438;28;20368;-66
2022/08/03 01:44:29;;;;;;;3.65;1.38;;;21.80;72.90;;;;;;4993300;28;20030;-66
2022/08/03 01:47:00;;;;;;;4.60;1.45;;;21.70;72.80;;;;;;4994416;28;20433;-66
2022/08/03 01:49:29;;;;;;;6.93;1.98;;;21.70;72.90;;;;;;4994669;28;20033;-66
2022/08/03 01:51:56;;;;;;;4.53;1.65;;;21.70;73.10;;;;;;4994272;28;20114;-66
2022/08/03 01:54:23;;;;;;;3.85;1.50;;;21.70;73.30;;;;;;4994565;28;20034;-66
2022/08/03 01:56:51;;;;;;;3.72;1.42;;;21.70;73.50;;;;;;4994089;28;20101;-66
2022/08/03 01:59:19;;;;;;;3.78;1.73;;;21.60;73.50;;;;;;4994253;28;20102;-65
2022/08/03 02:01:46;;;;;;;3.60;1.30;;;21.60;73.50;;;;;;4994323;28;20026;-66
2022/08/03 02:04:16;;;;;;;2.50;1.27;;;21.60;73.20;;;;;;4993189;28;20564;-66
2022/08/03 02:06:45;;;;;;;3.60;1.20;;;21.70;73.10;;;;;;4994161;28;20034;-66
2022/08/03 02:09:12;;;;;;;4.03;1.20;;;21.70;73.00;;;;;;4993877;28;20552;-65
2022/08/03 02:11:39;;;;;;;4.55;1.35;;;21.70;72.90;;;;;;4993718;28;20708;-65
2022/08/03 02:14:06;;;;;;;4.40;1.45;;;21.70;72.80;;;;;;4993786;28;20014;-65
2022/08/03 02:16:33;;;;;;;4.60;1.80;;;21.70;72.90;;;;;;4993159;28;20022;-66
2022/08/03 02:19:01;;;;;;;5.50;1.67;;;21.60;73.30;;;;;;4994823;28;20022;-65
2022/08/03 02:21:31;;;;;;;3.78;1.60;;;21.50;73.50;;;;;;4994687;28;20026;-66
2022/08/03 02:23:57;;;;;;;5.03;2.00;;;21.50;73.80;;;;;;4991848;28;20520;-66
2022/08/03 02:26:25;;;;;;;5.15;2.00;;;21.50;74.10;;;;;;4992950;28;20108;-66
2022/08/03 02:28:54;;;;;;;5.10;2.00;;;21.40;74.30;;;;;;4993861;28;20394;-66
2022/08/03 02:31:24;;;;;;;4.03;1.45;;;21.40;74.40;;;;;;4993509;28;20030;-66
2022/08/03 02:33:57;;;;;;;5.90;1.70;;;21.40;74.30;;;;;;4993845;28;20053;-66
2022/08/03 02:36:26;;;;;;;4.60;1.58;;;21.40;74.20;;;;;;4993508;28;20551;-65
2022/08/03 02:38:56;;;;;;;3.92;1.45;;;21.40;74.30;;;;;;4992482;28;20030;-66
2022/08/03 02:41:30;;;;;;;3.10;1.30;;;21.40;74.30;;;;;;4992179;28;20045;-66
2022/08/03 02:43:58;;;;;;;3.08;1.55;;;21.50;74.30;;;;;;4993346;28;20053;-66
2022/08/03 02:46:31;;;;;;;6.93;1.80;;;21.50;74.20;;;;;;4993414;28;20027;-66
2022/08/03 02:49:00;;;;;;;3.53;1.63;;;21.50;74.30;;;;;;4993587;28;20028;-66
2022/08/03 02:51:28;;;;;;;4.03;2.03;;;21.50;74.30;;;;;;4993292;28;20084;-66
2022/08/03 02:53:56;;;;;;;6.20;1.70;;;21.50;74.50;;;;;;4993525;28;20022;-66
2022/08/03 02:56:24;;;;;;;3.42;1.40;;;21.40;74.60;;;;;;4993083;28;20014;-66
2022/08/03 02:58:51;;;;;;;3.53;1.90;;;21.40;74.70;;;;;;4993417;28;20026;-65
2022/08/03 03:01:19;;;;;;;4.22;1.60;;;21.40;74.50;;;;;;4993393;28;20089;-66
2022/08/03 03:03:45;;;;;;;4.30;1.50;;;21.40;74.50;;;;;;4993376;28;20061;-66
2022/08/03 03:06:12;;;;;;;3.42;1.40;;;21.50;74.40;;;;;;4993617;28;20416;-66
2022/08/03 03:08:38;;;;;;;3.28;1.70;;;21.50;74.40;;;;;;4993272;28;20014;-66
2022/08/03 03:11:06;;;;;;;4.53;1.70;;;21.50;74.40;;;;;;4993307;28;20061;-66
2022/08/03 03:13:32;;;;;;;4.00;1.85;;;21.40;74.60;;;;;;4992878;28;20045;-66
2022/08/03 03:16:03;;;;;;;6.50;2.22;;;21.40;74.80;;;;;;4993143;28;20027;-66
2022/08/03 03:18:32;;;;;;;4.00;1.70;;;21.40;75.10;;;;;;4992903;28;20026;-66
2022/08/03 03:20:59;;;;;;;5.55;2.00;;;21.30;75.10;;;;;;4992940;28;20274;-66
2022/08/03 03:23:26;;;;;;;3.45;1.58;;;21.30;75.30;;;;;;4992647;28;20022;-66
2022/08/03 03:25:54;;;;;;;5.00;2.20;;;21.20;75.20;;;;;;4992963;28;20037;-66
2022/08/03 03:28:21;;;;;;;5.57;1.60;;;21.20;75.40;;;;;;4992604;28;20468;-66
2022/08/03 03:30:47;;;;;;;5.57;2.15;;;21.20;75.40;;;;;;4992684;28;20077;-66
2022/08/03 03:33:12;;;;;;;5.93;2.60;;;21.20;75.50;;;;;;4991392;28;20111;-66
2022/08/03 03:35:41;;;;;;;6.95;2.30;;;21.10;76.20;;;;;;4992522;28;20105;-66
2022/08/03 03:38:06;;;;;;;4.72;1.88;;;21.10;76.50;;;;;;4992719;28;20144;-65
2022/08/03 03:40:33;;;;;;;4.07;1.90;;;21.10;76.40;;;;;;4992172;28;20109;-65
2022/08/03 03:42:59;;;;;;;4.20;2.05;;;21.10;76.20;;;;;;4992377;28;20141;-66
2022/08/03 03:45:25;;;;;;;5.35;2.40;;;21.10;76.50;;;;;;4992204;28;20058;-66
2022/08/03 03:47:51;;;;;;;4.57;1.98;;;21.10;76.70;;;;;;4992466;28;20485;-66
2022/08/03 03:50:18;;;;;;;4.13;2.22;;;21.00;76.70;;;;;;4992104;28;20030;-66
2022/08/03 03:52:43;;;;;;;4.45;2.65;;;21.00;76.90;;;;;;4992426;28;20350;-66
2022/08/03 03:55:09;;;;;;;5.05;2.30;;;21.00;77.10;;;;;;4991160;28;20029;-66
2022/08/03 03:57:34;;;;;;;5.38;2.42;;;21.00;77.10;;;;;;4992175;28;20460;-66
2022/08/03 04:00:00;;;;;;;4.88;2.10;;;21.00;77.10;;;;;;4992349;28;20057;-66
2022/08/03 04:02:26;;;;;;;4.32;2.22;;;21.00;77.20;;;;;;4991946;28;20027;-66
2022/08/03 04:10:57;;;;;;;6.20;2.80;;;20.90;77.70;;;;;;4992158;28;20069;-66
2022/08/03 04:13:28;;;;;;;6.38;2.53;;;20.90;78.00;;;;;;4991942;28;20392;-66
2022/08/03 04:15:56;;;;;;;5.03;2.72;;;20.80;78.20;;;;;;4992031;28;20023;-66
2022/08/03 04:18:23;;;;;;;4.93;2.38;;;20.80;78.30;;;;;;4991648;28;20200;-66
2022/08/03 04:20:50;;;;;;;5.93;2.97;;;20.80;78.40;;;;;;4991952;28;20061;-66
2022/08/03 04:23:19;;;;;;;6.65;2.72;;;20.80;78.90;;;;;;4991449;28;20028;-66
2022/08/03 04:25:47;;;;;;;6.53;3.05;;;20.80;79.20;;;;;;4991800;28;20022;-67
2022/08/03 04:28:15;;;;;;;5.47;2.78;;;20.70;79.30;;;;;;4991404;28;20057;-66
2022/08/03 04:30:47;;;;;;;5.57;2.78;;;20.80;79.30;;;;;;4991778;28;20062;-66
2022/08/03 04:33:13;;;;;;;7.40;2.90;;;20.80;79.20;;;;;;4991480;28;20069;-66
2022/08/03 04:35:42;;;;;;;5.75;2.70;;;20.80;79.30;;;;;;4991538;28;20022;-66
2022/08/03 04:38:11;;;;;;;5.65;2.80;;;20.80;79.10;;;;;;4992056;28;20022;-66
2022/08/03 04:40:40;;;;;;;8.13;2.97;;;20.90;79.00;;;;;;4991253;28;20026;-66
2022/08/03 04:43:08;;;;;;;6.25;3.30;;;20.90;79.20;;;;;;4991157;28;20508;-66
2022/08/03 04:45:34;;;;;;;5.70;3.05;;;20.90;79.30;;;;;;4991046;28;20031;-66
2022/08/03 04:48:01;;;;;;;7.35;2.95;;;20.90;79.10;;;;;;4989779;28;20096;-66
2022/08/03 04:50:27;;;;;;;7.20;3.10;;;20.90;78.90;;;;;;4991159;28;20478;-66
2022/08/03 04:52:53;;;;;;;6.50;2.97;;;21.00;79.00;;;;;;4991242;28;20069;-66
2022/08/03 04:55:45;;;;;;;7.65;2.90;;;21.00;78.90;;;;;;4989699;28;20481;-66
2022/08/03 04:58:11;;;;;;;;;;;21.00;78.70;;;;;;4989122;28;20396;-66
2022/08/03 05:00:37;;;;;;;7.32;3.17;;;21.00;78.70;;;;;;4990721;28;19909;-66
2022/08/03 05:03:02;;;;;;;4.38;2.60;;;21.00;79.00;;;;;;4990306;28;20061;-66
2022/08/03 05:05:28;;;;;;;7.32;3.22;;;21.00;78.80;;;;;;4989379;28;20025;-66
2022/08/03 05:07:55;;;;;;;5.35;3.72;;;21.10;78.70;;;;;;4991097;28;20510;-66
2022/08/03 05:10:20;;;;;;;4.15;2.80;;;21.10;78.60;;;;;;4990627;28;20105;-66
2022/08/03 05:12:47;;;;;;;6.43;3.00;;;21.20;78.40;;;;;;4990975;28;20613;-66
2022/08/03 05:15:13;;;;;;;6.40;3.35;;;21.20;78.10;;;;;;4991063;28;20030;-66
2022/08/03 05:17:39;;;;;;;7.78;3.40;;;21.30;78.00;;;;;;4991649;28;20030;-66
2022/08/03 05:20:05;;;;;;;6.72;3.55;;;21.30;78.10;;;;;;4991163;28;20022;-66
2022/08/03 05:22:31;;;;;;;6.03;3.17;;;21.30;78.00;;;;;;4991000;28;20029;-66
2022/08/03 05:24:57;;;;;;;6.10;3.28;;;21.40;78.70;;;;;;4991526;28;20018;-66
2022/08/03 05:27:23;;;;;;;6.03;2.83;;;21.80;77.50;;;;;;4990837;28;20026;-66
2022/08/03 05:29:50;;;;;;;3.90;2.05;;;22.30;76.20;;;;;;4991210;28;20038;-66
2022/08/03 05:32:16;;;;;;;4.93;2.60;;;23.10;74.40;;;;;;4990785;28;20026;-66
2022/08/03 05:34:42;;;;;;;4.72;2.08;;;23.90;71.80;;;;;;4990379;28;20033;-66
2022/08/03 05:37:08;;;;;;;5.18;2.17;;;24.90;69.30;;;;;;4990356;28;20027;-66
2022/08/03 05:39:34;;;;;;;5.95;3.10;;;25.80;66.70;;;;;;4990311;28;20030;-66
2022/08/03 05:42:00;;;;;;;7.03;2.75;;;26.40;63.90;;;;;;4989644;28;20038;-66
2022/08/03 05:44:26;;;;;;;4.78;1.98;;;26.90;62.60;;;;;;4990826;28;20022;-66
2022/08/03 05:46:51;;;;;;;9.20;3.42;;;27.50;61.20;;;;;;4990944;28;20622;-66
2022/08/03 05:49:18;;;;;;;6.38;2.30;;;27.80;59.00;;;;;;4990687;28;20040;-66
2022/08/03 05:51:43;;;;;;;8.38;4.03;;;28.10;58.50;;;;;;4990755;28;20027;-66
2022/08/03 05:54:09;;;;;;;6.18;2.28;;;28.50;57.10;;;;;;4990514;28;20110;-66
2022/08/03 05:56:34;;;;;;;5.72;2.42;;;28.80;56.70;;;;;;4990569;28;20026;-66
2022/08/03 05:59:00;;;;;;;7.00;2.35;;;29.30;55.70;;;;;;4990579;28;20031;-66
2022/08/03 06:01:25;;;;;;;5.07;2.17;;;29.50;54.70;;;;;;4990700;28;20030;-66
2022/08/03 06:03:51;;;;;;;6.47;2.75;;;30.00;54.00;;;;;;4990437;28;20030;-66
2022/08/03 06:06:17;;;;;;;6.43;2.35;;;30.10;53.00;;;;;;4990812;28;20416;-66
2022/08/03 06:08:44;;;;;;;5.80;2.08;;;30.40;52.50;;;;;;4995184;28;20023;-66
2022/08/03 06:11:09;;;;;;;4.20;2.10;;;30.60;52.10;;;;;;5001213;28;20393;-66
2022/08/03 06:13:35;;;;;;;6.03;2.00;;;30.70;52.10;;;;;;4994228;28;20030;-66
2022/08/03 06:16:01;;;;;;;7.13;2.38;;;30.80;51.60;;;;;;4992350;28;20030;-66
2022/08/03 06:18:27;;;;;;;5.68;2.17;;;30.60;50.80;;;;;;5000440;28;20026;-66
2022/08/03 06:20:53;;;;;;;5.10;2.10;;;30.00;51.50;;;;;;5014703;28;20393;-66
2022/08/03 06:23:19;;;;;;;5.18;1.98;;;29.60;52.50;;;;;;5014899;28;20076;-66
2022/08/03 06:25:44;;;;;;;7.00;2.42;;;29.20;53.30;;;;;;5014053;28;20026;-66
2022/08/03 06:28:12;;;;;;;4.65;2.10;;;28.80;53.50;;;;;;5013766;28;20026;-66
2022/08/03 06:30:38;;;;;;;6.50;2.03;;;28.60;54.50;;;;;;5013373;28;20022;-66
2022/08/03 06:33:04;;;;;;;7.22;2.30;;;28.80;54.30;;;;;;5013404;28;20028;-67
2022/08/03 06:35:29;;;;;;;5.90;1.63;;;28.90;53.90;;;;;;5013462;28;20724;-67
2022/08/03 06:37:55;;;;;;;6.47;1.92;;;29.00;54.20;;;;;;5013242;28;20029;-67
2022/08/03 06:40:27;;;;;;;7.15;3.03;;;29.40;53.50;;;;;;5013299;28;20022;-67
2022/08/03 06:42:54;;;;;;;4.95;1.92;;;29.70;52.60;;;;;;5013156;28;20045;-67
2022/08/03 06:45:19;;;;;;;5.03;2.13;;;29.60;52.80;;;;;;5013247;28;20044;-67
2022/08/03 06:47:45;;;;;;;8.90;2.50;;;29.60;53.00;;;;;;5013071;28;20025;-68
2022/08/03 06:50:10;;;;;;;3.88;1.98;;;29.20;53.30;;;;;;5013198;28;20087;-67
2022/08/03 06:52:36;;;;;;;6.85;1.98;;;28.80;53.90;;;;;;5012876;28;20045;-67
2022/08/03 06:55:03;;;;;;;5.45;2.42;;;28.50;54.80;;;;;;5013759;28;20373;-67
2022/08/03 06:57:29;;;;;;;6.05;2.22;;;28.70;55.00;;;;;;5027209;28;20010;-67
2022/08/03 07:00:00;;;;;;;5.53;1.95;;;28.80;55.00;;;;;;5026394;28;20072;-67
2022/08/03 07:02:26;;;;;;;7.18;2.72;;;28.90;55.20;;;;;;5015333;28;20020;-67
2022/08/03 07:04:52;;;;;;;6.05;2.20;;;28.80;55.70;;;;;;5012657;28;20053;-67
2022/08/03 07:07:18;;;;;;;7.65;2.83;;;28.50;55.30;;;;;;5012952;28;20065;-67
2022/08/03 07:09:43;;;;;;;5.30;1.90;;;28.20;55.50;;;;;;5010253;28;20644;-67
2022/08/03 07:12:09;;;;;;;5.07;1.85;;;28.30;56.10;;;;;;5012081;28;20026;-67
2022/08/03 07:14:34;;;;;;;12.70;2.92;;;28.50;55.80;;;;;;5011613;28;20022;-67
2022/08/03 07:17:00;;;;;;;12.95;3.78;;;28.70;54.90;;;;;;5012135;28;20026;-67
2022/08/03 07:19:25;;;;;;;11.65;2.70;;;28.50;54.50;;;;;;5003576;28;20428;-67
2022/08/03 07:21:51;;;;;;;8.07;2.78;;;28.80;54.30;;;;;;5004420;28;20030;-67
2022/08/03 07:24:16;;;;;;;6.38;2.25;;;28.80;54.40;;;;;;4999595;28;20024;-67
2022/08/03 07:26:42;;;;;;;8.10;2.65;;;28.70;54.70;;;;;;5002161;28;20038;-67
2022/08/03 07:29:07;;;;;;;11.70;2.45;;;29.00;54.70;;;;;;5011411;28;20030;-67
2022/08/03 07:31:33;;;;;;;7.68;2.08;;;29.00;54.40;;;;;;5002731;28;20022;-67
2022/08/03 07:33:58;;;;;;;5.45;1.73;;;29.00;54.60;;;;;;5006934;28;20494;-67
2022/08/03 07:36:24;;;;;;;5.07;1.75;;;28.70;54.90;;;;;;5011995;28;20029;-67
2022/08/03 07:38:50;;;;;;;9.68;2.33;;;28.80;55.40;;;;;;5012009;28;20041;-67
2022/08/03 07:41:15;;;;;;;6.53;1.60;;;28.50;55.20;;;;;;5011258;28;20404;-67
2022/08/03 07:43:41;;;;;;;5.75;1.90;;;28.20;55.80;;;;;;5008118;28;20027;-68
2022/08/03 07:46:06;;;;;;;7.22;1.60;;;28.00;56.10;;;;;;5011664;28;20108;-67
2022/08/03 07:48:32;;;;;;;7.05;1.60;;;27.90;56.30;;;;;;5011706;28;20088;-67
2022/08/03 07:50:57;;;;;;;7.05;1.60;;;27.80;56.50;;;;;;5011634;28;20041;-67
2022/08/03 07:53:23;;;;;;;7.38;1.70;;;27.80;56.70;;;;;;5027025;28;20496;-67
2022/08/03 07:55:48;;;;;;;5.07;1.60;;;27.70;56.80;;;;;;5012044;28;20057;-67
2022/08/03 07:58:16;;;;;;;6.07;2.10;;;27.60;57.00;;;;;;5011643;28;20514;-67
2022/08/03 08:00:43;;;;;;;7.10;2.17;;;27.40;56.60;;;;;;5011940;28;20105;-67
2022/08/03 08:03:09;;;;;;;6.90;1.73;;;27.40;57.10;;;;;;5011709;28;20034;-67
2022/08/03 08:05:35;;;;;;;5.40;1.65;;;27.40;57.20;;;;;;5012020;28;20022;-66
2022/08/03 08:08:01;;;;;;;5.80;1.35;;;27.60;57.00;;;;;;5011985;28;20127;-67
2022/08/03 08:10:27;;;;;;;7.28;2.08;;;27.80;56.90;;;;;;5011998;28;20046;-66
2022/08/03 08:12:53;;;;;;;3.95;1.40;;;27.70;56.80;;;;;;5009217;28;20029;-67
2022/08/03 08:15:19;;;;;;;8.15;2.00;;;27.70;56.90;;;;;;5002135;28;20053;-66
2022/08/03 08:17:53;;;;;;;6.38;1.50;;;27.80;56.60;;;;;;5000282;28;20054;-67
2022/08/03 08:20:22;;;;;;;4.28;1.52;;;27.90;56.70;;;;;;5000652;28;20089;-67
2022/08/03 08:22:48;;;;;;;6.30;2.03;;;27.90;56.30;;;;;;5004268;28;20017;-67
2022/08/03 08:25:14;;;;;;;8.73;2.20;;;28.00;56.10;;;;;;5002718;28;20014;-67
2022/08/03 08:27:44;;;;;;;6.50;1.67;;;28.00;56.00;;;;;;5000409;28;20022;-67
2022/08/03 08:30:11;;;;;;;5.93;2.15;;;28.00;56.00;;;;;;5000265;28;20031;-67
2022/08/03 08:32:37;;;;;;;8.40;2.10;;;28.00;55.70;;;;;;5000773;28;20084;-67
2022/08/03 08:35:04;;;;;;;7.40;1.92;;;28.00;55.90;;;;;;5001810;28;20022;-67
2022/08/03 08:37:29;;;;;;;5.50;1.60;;;28.10;55.70;;;;;;4999854;28;20053;-67
2022/08/03 08:39:55;;;;;;;8.20;2.35;;;28.20;55.50;;;;;;5000289;28;20046;-67
2022/08/03 08:42:21;;;;;;;8.18;2.45;;;28.10;54.90;;;;;;4998822;28;20484;-68
2022/08/03 08:44:47;;;;;;;7.72;1.92;;;27.90;55.00;;;;;;5000668;28;20022;-67
2022/08/03 08:47:13;;;;;;;9.90;2.17;;;28.00;55.40;;;;;;5001780;28;20030;-66
2022/08/03 08:49:40;;;;;;;9.15;2.28;;;28.00;55.10;;;;;;4999938;28;20044;-66
2022/08/03 08:52:07;;;;;;;8.02;2.22;;;28.00;55.10;;;;;;5001572;28;20498;-67
2022/08/03 08:54:35;;;;;;;11.20;2.30;;;28.10;54.80;;;;;;4996147;28;20034;-67
2022/08/03 08:57:03;;;;;;;9.45;2.35;;;28.00;54.80;;;;;;4995481;28;20019;-67
2022/08/03 08:59:33;;;;;;;13.82;2.28;;;28.00;54.70;;;;;;4995611;28;20014;-67
2022/08/03 09:01:59;;;;;;;9.50;2.00;;;28.20;54.60;;;;;;4995693;28;20474;-67
2022/08/03 09:04:25;;;;;;;8.10;1.98;;;28.30;54.50;;;;;;4995492;28;20050;-67
2022/08/03 09:06:51;;;;;;;5.80;1.65;;;28.40;54.30;;;;;;4995526;28;20075;-66
2022/08/03 09:09:17;;;;;;;12.07;2.40;;;28.60;54.30;;;;;;4996218;28;20034;-66
2022/08/03 09:11:42;;;;;;;8.30;2.00;;;28.50;53.40;;;;;;4995384;28;20027;-66
2022/08/03 09:14:09;;;;;;;11.60;2.35;;;28.50;53.50;;;;;;4995313;28;20045;-66
2022/08/03 09:16:35;;;;;;;8.75;2.30;;;28.50;53.30;;;;;;4996034;28;20026;-65
2022/08/03 09:19:15;;;;;;;11.18;2.50;;;28.40;52.90;;;;;;4995314;28;20033;-66
2022/08/03 09:21:41;;;;;;;11.82;2.63;;;28.30;52.90;;;;;;4995450;28;20025;-66
2022/08/03 09:24:06;;;;;;;8.38;2.50;;;28.40;53.10;;;;;;4995157;28;20396;-66
2022/08/03 09:26:36;;;;;;;12.52;2.25;;;28.40;53.40;;;;;;5002222;28;20045;-66
2022/08/03 09:29:08;;;;;;;6.07;1.80;;;28.50;52.90;;;;;;4999637;28;20022;-66
2022/08/03 09:31:35;;;;;;;;;;;28.50;52.60;;;;;;4996072;28;20105;-66
2022/08/03 09:34:07;;;;;;;8.57;2.30;;;28.50;52.30;;;;;;4999848;28;19913;-66
2022/08/03 09:36:52;;;;;;;7.90;2.20;;;28.60;52.30;;;;;;5001563;28;20049;-66
2022/08/03 09:39:23;;;;;;;8.95;2.30;;;28.70;52.10;;;;;;5003102;28;20021;-66
2022/08/03 09:42:04;;;;;;;10.25;2.22;;;28.80;52.00;;;;;;5004146;28;20600;-66
2022/08/03 09:44:41;;;;;;;6.88;2.20;;;28.90;51.60;;;;;;5006026;28;20022;-66
2022/08/03 09:47:07;;;;;;;10.55;2.00;;;29.00;51.60;;;;;;5006419;28;20475;-66
2022/08/03 09:49:32;;;;;;;7.63;1.70;;;29.10;51.40;;;;;;5005694;28;20038;-66
2022/08/03 09:52:13;;;;;;;8.73;1.90;;;29.30;51.50;;;;;;5004513;28;20030;-66
2022/08/03 09:54:39;;;;;;;10.23;2.00;;;29.50;51.20;;;;;;5010249;28;20555;-66
2022/08/03 09:57:05;;;;;;;9.82;2.28;;;29.50;50.90;;;;;;5006166;28;20046;-66
2022/08/03 09:59:32;;;;;;;9.63;2.40;;;29.60;50.60;;;;;;5007701;28;20028;-66
2022/08/03 10:01:58;;;;;;;8.90;2.28;;;29.60;50.40;;;;;;5007634;28;20117;-66
2022/08/03 10:04:25;;;;;;;11.50;2.47;;;29.80;50.50;;;;;;5008006;28;20025;-66
2022/08/03 10:07:08;;;;;;;7.57;1.83;;;29.80;49.70;;;;;;5011439;28;20113;-66
2022/08/03 10:09:34;;;;;;;10.98;2.40;;;29.80;49.70;;;;;;5009669;28;20033;-65
2022/08/03 10:12:11;;;;;;;11.45;2.22;;;29.60;49.40;;;;;;5010771;28;20017;-66
2022/08/03 10:14:40;;;;;;;7.70;1.77;;;29.40;49.80;;;;;;5011837;28;20029;-65
2022/08/03 10:17:06;;;;;;;12.30;2.70;;;29.40;50.90;;;;;;5009857;28;20025;-65
2022/08/03 10:19:32;;;;;;;8.77;2.03;;;29.50;50.20;;;;;;5007444;28;20149;-67
2022/08/03 10:22:22;;;;;;;6.93;1.90;;;29.50;50.10;;;;;;5007805;28;20443;-65
2022/08/03 10:25:08;;;;;;;8.35;1.95;;;29.70;50.30;;;;;;5008984;28;20109;-64
2022/08/03 10:27:37;;;;;;;8.68;2.13;;;29.90;50.30;;;;;;5008381;28;20439;-66
2022/08/03 10:30:09;;;;;;;6.80;1.90;;;30.10;49.90;;;;;;5012376;28;20080;-66
2022/08/03 10:32:44;;;;;;;6.95;1.60;;;30.30;49.80;;;;;;5012151;28;20449;-66
2022/08/03 10:35:13;;;;;;;12.55;2.63;;;30.40;49.60;;;;;;5014997;28;20062;-66
2022/08/03 10:37:56;;;;;;;9.13;2.33;;;30.40;48.40;;;;;;5011843;28;20014;-66
2022/08/03 10:40:22;;;;;;;8.95;1.90;;;30.30;48.40;;;;;;5011276;28;20030;-66
2022/08/03 10:42:53;;;;;;;13.35;2.45;;;30.30;48.30;;;;;;5011932;28;20026;-66
2022/08/03 10:45:22;;;;;;;7.53;2.38;;;30.30;47.60;;;;;;5009956;28;20018;-66
2022/08/03 10:47:50;;;;;;;8.93;2.22;;;30.20;47.40;;;;;;5005768;28;20489;-66
2022/08/03 10:50:16;;;;;;;9.43;2.53;;;30.20;47.60;;;;;;5011288;28;20101;-66
2022/08/03 10:53:06;;;;;;;9.65;2.40;;;30.30;47.60;;;;;;5008872;28;20022;-66
2022/08/03 10:58:36;;;;;;;8.73;2.00;;;30.40;47.30;;;;;;5009505;28;20025;-66
2022/08/03 11:01:04;;;;;;;10.93;2.28;;;30.40;47.50;;;;;;5010206;28;20133;-66
2022/08/03 11:03:30;;;;;;;8.55;1.80;;;30.50;47.50;;;;;;5009180;28;20029;-66
2022/08/03 11:06:17;;;;;;;7.38;1.88;;;30.60;47.50;;;;;;5009847;28;20156;-66
2022/08/03 11:08:44;;;;;;;10.95;2.30;;;30.80;47.20;;;;;;5006353;28;20026;-66
2022/08/03 11:11:18;;;;;;;6.43;1.77;;;30.80;46.20;;;;;;5007701;28;20022;-66
2022/08/03 11:13:56;;;;;;;8.95;2.10;;;30.80;46.60;;;;;;5009531;28;20631;-66
2022/08/03 11:16:24;;;;;;;9.63;2.30;;;30.90;45.70;;;;;;5010183;28;20675;-66
2022/08/03 11:19:01;;;;;;;7.35;1.85;;;30.90;45.30;;;;;;5010156;28;20021;-66
2022/08/03 11:21:49;;;;;;;6.13;1.60;;;30.80;45.40;;;;;;5009951;28;20037;-66
2022/08/03 11:24:39;;;;;;;9.70;1.90;;;31.00;45.80;;;;;;5009451;28;20032;-66
2022/08/03 11:27:29;;;;;;;9.30;2.03;;;31.10;45.20;;;;;;5008675;28;20042;-66
2022/08/03 11:30:07;;;;;;;7.60;1.90;;;31.10;45.00;;;;;;5007303;28;20030;-66
2022/08/03 11:32:39;;;;;;;6.35;1.60;;;31.20;44.90;;;;;;5008808;28;21253;-66
2022/08/03 11:35:14;;;;;;;6.82;1.70;;;31.40;44.80;;;;;;5011247;28;20804;-66
2022/08/03 11:37:55;;;;;;;6.18;1.52;;;31.40;43.80;;;;;;5008761;28;20064;-66
2022/08/03 11:40:40;;;;;;;4.45;1.60;;;31.60;43.80;;;;;;5001309;28;20030;-67
2022/08/03 11:43:08;;;;;;;8.35;1.90;;;31.60;43.70;;;;;;5004393;28;20568;-67
2022/08/03 11:45:34;;;;;;;5.68;1.67;;;31.70;43.40;;;;;;5009353;28;20019;-67
2022/08/03 11:48:14;;;;;;;7.97;2.05;;;31.70;43.10;;;;;;5007780;28;20017;-67
2022/08/03 11:50:41;;;;;;;6.13;1.70;;;31.70;43.60;;;;;;5004956;28;20056;-66
2022/08/03 11:53:07;;;;;;;5.15;1.75;;;31.90;43.10;;;;;;5010709;28;20105;-66
2022/08/03 11:55:34;;;;;;;7.80;2.00;;;32.00;42.80;;;;;;5008083;28;20097;-66
2022/08/03 11:57:59;;;;;;;9.88;2.10;;;32.00;41.90;;;;;;5009373;28;20025;-66
2022/08/03 12:00:30;;;;;;;4.03;1.40;;;32.10;41.30;;;;;;5008722;28;20022;-66
2022/08/03 12:02:59;;;;;;;5.50;1.70;;;32.20;41.10;;;;;;5008149;28;20483;-66
2022/08/03 12:05:41;;;;;;;6.22;1.60;;;32.30;41.00;;;;;;5005978;28;20022;-66
2022/08/03 12:08:09;;;;;;;5.88;1.50;;;32.40;40.60;;;;;;5007447;28;20010;-66
2022/08/03 12:10:36;;;;;;;8.88;2.47;;;32.50;40.60;;;;;;5007647;28;20488;-66
2022/08/03 12:13:07;;;;;;;5.28;1.58;;;32.30;40.50;;;;;;5023263;28;20041;-66
2022/08/03 12:15:33;;;;;;;;;;;32.30;40.80;;;;;;5007095;28;20069;-66
2022/08/03 12:18:00;;;;;;;7.95;1.80;;;32.50;40.80;;;;;;5009015;28;19968;-67
2022/08/03 12:20:28;;;;;;;7.85;2.17;;;32.50;40.60;;;;;;5005553;28;20018;-66
2022/08/03 12:22:54;;;;;;;5.85;1.40;;;32.50;40.40;;;;;;5006528;28;20049;-66
2022/08/03 12:25:22;;;;;;;5.55;1.60;;;32.70;40.70;;;;;;5004029;28;20064;-65
2022/08/03 12:27:48;;;;;;;6.43;1.60;;;32.90;40.40;;;;;;5005546;28;20045;-65
2022/08/03 12:30:14;;;;;;;6.78;2.13;;;33.10;40.30;;;;;;5002756;28;20143;-66
2022/08/03 12:32:42;;;;;;;10.10;2.25;;;33.30;39.40;;;;;;5005002;28;20877;-66
2022/08/03 12:35:08;;;;;;;7.65;1.92;;;33.30;39.00;;;;;;5002401;28;20030;-65
2022/08/03 12:37:35;;;;;;;9.20;1.98;;;33.30;38.50;;;;;;5003851;28;20457;-65
2022/08/03 12:40:04;;;;;;;7.40;1.63;;;33.30;38.40;;;;;;5003552;28;20033;-65
2022/08/03 12:42:34;;;;;;;4.55;1.70;;;33.40;38.70;;;;;;5005267;28;20071;-65
2022/08/03 12:45:20;;;;;;;6.83;1.77;;;33.40;38.30;;;;;;5007082;28;20030;-66
2022/08/03 12:48:00;;;;;;;6.30;1.65;;;33.60;38.10;;;;;;5006916;28;20276;-66
2022/08/03 12:50:32;;;;;;;6.43;1.40;;;33.60;37.50;;;;;;5006048;28;20101;-65
2022/08/03 12:52:59;;;;;;;5.78;1.48;;;33.50;37.20;;;;;;5009081;28;20010;-66
2022/08/03 12:55:34;;;;;;;3.63;1.10;;;33.50;37.60;;;;;;5007585;28;20025;-66
2022/08/03 12:58:05;;;;;;;4.43;1.20;;;33.80;38.00;;;;;;5005311;28;20064;-66
2022/08/03 13:00:31;;;;;;;4.90;1.30;;;34.10;37.80;;;;;;5006506;28;20030;-66
2022/08/03 13:03:04;;;;;;;5.25;1.35;;;34.10;37.40;;;;;;5007679;28;20439;-65
2022/08/03 13:05:31;;;;;;;8.68;1.33;;;34.30;37.50;;;;;;5011638;28;20033;-66